SBOSBO LJU / LJLJ
Speedbird OnlineSpeedbird Online LJU / LJLJ

Ljubljana Jože Pučnik Airport
23:18 13.3°C

Location Ljubljana, Slovenia
Latitude: 46.223701
Longitude: 14.4576
Local Time 23:18 on 29 May 2024
UTC +2 hours (Europe/Ljubljana)
Currency £1 equals EUR 1.18
METAR LJLJ 292100Z 29002KT 9999 FEW050 14/12 Q1012 NOSIG
TAF TAF LJLJ 291700Z 2918/3018 16003KT 9999 FEW040 PROB40 TEMPO 3002/3006 0450 FG VV001 TEMPO 3010/3018 SHRA SCT035TCU BKN045 PROB40 TEMPO 3010/3018 5000 TSRA SCT035CB BKN045
Weather As Of 29 May 2024 23:18
Description Few clouds
Wind 4 km/h from West (290°)
Cloud Cover 20%
Precipitation Rain: none, Snow: none
Sunrise 05:16
Sunset 20:43
NOTAM 22 active NOTAM
Rotations During the last 90 days there were
49 flights from LHR
45 flights to LHR
Lounges Business Lounge , Departures Areas
Web Airport Website | Wikipedia
Codes IATA: LJU
ICAO: LJLJ
Altitude 388 Meter / 1273 Feet
Distance 1,199 KM / 745 Miles
from London.
Runways
RunwayLength (m)Surface
123300Asphalt
303300Asphalt
Radio
TypeDescriptionFrequency
A/DAPP135.275
ATISalso on VOR DOL 112.700128.175
GND121.625
HANDLING & GA131.4
TWRTWR118
Live ATC



Support Speedbird Online

© 2017-2024 Speedbird Online